sensor_id;sensor_type;location;lat;lon;timestamp;P1;durP1;ratioP1;P2;durP2;ratioP2
21943;SDS011;11136;48.778;9.126;2023-04-28T00:01:38;6.18;;;3.30;;
21943;SDS011;11136;48.778;9.126;2023-04-28T00:04:04;8.63;;;3.22;;
21943;SDS011;11136;48.778;9.126;2023-04-28T00:06:30;7.32;;;3.58;;
21943;SDS011;11136;48.778;9.126;2023-04-28T00:08:55;7.38;;;4.20;;
21943;SDS011;11136;48.778;9.126;2023-04-28T00:11:21;8.90;;;4.15;;
21943;SDS011;11136;48.778;9.126;2023-04-28T00:13:46;9.65;;;5.07;;
21943;SDS011;11136;48.778;9.126;2023-04-28T00:16:12;5.43;;;4.28;;
21943;SDS011;11136;48.778;9.126;2023-04-28T00:18:37;9.05;;;4.20;;
21943;SDS011;11136;48.778;9.126;2023-04-28T00:21:03;12.13;;;4.82;;
21943;SDS011;11136;48.778;9.126;2023-04-28T00:23:29;8.13;;;3.85;;
21943;SDS011;11136;48.778;9.126;2023-04-28T00:25:54;9.77;;;3.70;;
21943;SDS011;11136;48.778;9.126;2023-04-28T00:28:21;10.00;;;4.40;;
21943;SDS011;11136;48.778;9.126;2023-04-28T00:30:47;8.82;;;3.65;;
21943;SDS011;11136;48.778;9.126;2023-04-28T00:33:12;9.75;;;4.20;;
21943;SDS011;11136;48.778;9.126;2023-04-28T00:35:39;7.60;;;3.50;;
21943;SDS011;11136;48.778;9.126;2023-04-28T00:38:05;8.10;;;3.63;;
21943;SDS011;11136;48.778;9.126;2023-04-28T00:40:32;7.03;;;3.55;;
21943;SDS011;11136;48.778;9.126;2023-04-28T00:42:58;5.45;;;3.70;;
21943;SDS011;11136;48.778;9.126;2023-04-28T00:45:24;8.75;;;3.55;;
21943;SDS011;11136;48.778;9.126;2023-04-28T00:47:49;5.93;;;3.15;;
21943;SDS011;11136;48.778;9.126;2023-04-28T00:50:15;6.88;;;3.38;;
21943;SDS011;11136;48.778;9.126;2023-04-28T00:52:41;6.70;;;3.42;;
21943;SDS011;11136;48.778;9.126;2023-04-28T00:55:07;4.15;;;3.20;;
21943;SDS011;11136;48.778;9.126;2023-04-28T00:57:34;8.48;;;3.25;;
21943;SDS011;11136;48.778;9.126;2023-04-28T01:00:00;5.90;;;3.15;;
21943;SDS011;11136;48.778;9.126;2023-04-28T01:02:28;4.82;;;3.05;;
21943;SDS011;11136;48.778;9.126;2023-04-28T01:04:55;5.90;;;2.88;;
21943;SDS011;11136;48.778;9.126;2023-04-28T01:07:21;6.30;;;3.40;;
21943;SDS011;11136;48.778;9.126;2023-04-28T01:09:47;7.60;;;3.17;;
21943;SDS011;11136;48.778;9.126;2023-04-28T01:12:12;4.18;;;2.92;;
21943;SDS011;11136;48.778;9.126;2023-04-28T01:14:38;7.90;;;2.88;;
21943;SDS011;11136;48.778;9.126;2023-04-28T01:17:04;5.72;;;3.10;;
21943;SDS011;11136;48.778;9.126;2023-04-28T01:19:31;6.15;;;3.42;;
21943;SDS011;11136;48.778;9.126;2023-04-28T01:21:57;5.40;;;2.83;;
21943;SDS011;11136;48.778;9.126;2023-04-28T01:27:27;7.00;;;2.92;;
21943;SDS011;11136;48.778;9.126;2023-04-28T01:29:52;6.30;;;3.40;;
21943;SDS011;11136;48.778;9.126;2023-04-28T01:32:18;4.13;;;2.53;;
21943;SDS011;11136;48.778;9.126;2023-04-28T01:34:43;5.40;;;3.03;;
21943;SDS011;11136;48.778;9.126;2023-04-28T01:37:09;4.60;;;2.80;;
21943;SDS011;11136;48.778;9.126;2023-04-28T01:39:35;2.90;;;2.28;;
21943;SDS011;11136;48.778;9.126;2023-04-28T01:42:00;4.43;;;2.45;;
21943;SDS011;11136;48.778;9.126;2023-04-28T01:44:26;3.35;;;2.50;;
21943;SDS011;11136;48.778;9.126;2023-04-28T01:46:52;4.32;;;2.17;;
21943;SDS011;11136;48.778;9.126;2023-04-28T01:49:17;7.80;;;2.80;;
21943;SDS011;11136;48.778;9.126;2023-04-28T01:51:43;5.72;;;2.63;;
21943;SDS011;11136;48.778;9.126;2023-04-28T01:54:08;5.07;;;2.70;;
21943;SDS011;11136;48.778;9.126;2023-04-28T01:56:34;3.53;;;2.20;;
21943;SDS011;11136;48.778;9.126;2023-04-28T01:59:00;3.13;;;2.35;;
21943;SDS011;11136;48.778;9.126;2023-04-28T02:01:26;3.90;;;2.25;;
21943;SDS011;11136;48.778;9.126;2023-04-28T02:03:51;4.30;;;2.60;;
21943;SDS011;11136;48.778;9.126;2023-04-28T02:06:19;3.75;;;2.20;;
21943;SDS011;11136;48.778;9.126;2023-04-28T02:08:44;4.53;;;2.45;;
21943;SDS011;11136;48.778;9.126;2023-04-28T02:11:10;2.85;;;2.10;;
21943;SDS011;11136;48.778;9.126;2023-04-28T02:13:35;3.67;;;2.10;;
21943;SDS011;11136;48.778;9.126;2023-04-28T02:16:01;3.47;;;2.33;;
21943;SDS011;11136;48.778;9.126;2023-04-28T02:18:26;4.07;;;2.30;;
21943;SDS011;11136;48.778;9.126;2023-04-28T02:20:52;2.45;;;2.20;;
21943;SDS011;11136;48.778;9.126;2023-04-28T02:23:18;5.00;;;2.75;;
21943;SDS011;11136;48.778;9.126;2023-04-28T02:25:43;4.93;;;2.35;;
21943;SDS011;11136;48.778;9.126;2023-04-28T02:28:09;5.57;;;2.70;;
21943;SDS011;11136;48.778;9.126;2023-04-28T02:30:34;5.80;;;2.28;;
21943;SDS011;11136;48.778;9.126;2023-04-28T02:33:00;5.03;;;2.15;;
21943;SDS011;11136;48.778;9.126;2023-04-28T02:35:26;5.38;;;2.55;;
21943;SDS011;11136;48.778;9.126;2023-04-28T02:37:52;3.88;;;2.20;;
21943;SDS011;11136;48.778;9.126;2023-04-28T02:40:17;5.38;;;2.60;;
21943;SDS011;11136;48.778;9.126;2023-04-28T02:42:43;7.03;;;2.60;;
21943;SDS011;11136;48.778;9.126;2023-04-28T02:45:09;3.58;;;1.73;;
21943;SDS011;11136;48.778;9.126;2023-04-28T02:47:35;6.38;;;3.03;;
21943;SDS011;11136;48.778;9.126;2023-04-28T02:50:01;2.95;;;1.77;;
21943;SDS011;11136;48.778;9.126;2023-04-28T02:52:26;5.53;;;2.22;;
21943;SDS011;11136;48.778;9.126;2023-04-28T02:54:52;3.35;;;2.35;;
21943;SDS011;11136;48.778;9.126;2023-04-28T02:57:21;4.70;;;2.20;;
21943;SDS011;11136;48.778;9.126;2023-04-28T02:59:47;6.20;;;2.55;;
21943;SDS011;11136;48.778;9.126;2023-04-28T03:02:12;4.25;;;2.35;;
21943;SDS011;11136;48.778;9.126;2023-04-28T03:04:38;2.42;;;2.08;;
21943;SDS011;11136;48.778;9.126;2023-04-28T03:07:04;9.45;;;2.50;;
21943;SDS011;11136;48.778;9.126;2023-04-28T03:09:30;2.28;;;2.08;;
21943;SDS011;11136;48.778;9.126;2023-04-28T03:11:56;2.45;;;1.83;;
21943;SDS011;11136;48.778;9.126;2023-04-28T03:14:21;5.13;;;2.20;;
21943;SDS011;11136;48.778;9.126;2023-04-28T03:16:47;3.42;;;2.20;;
21943;SDS011;11136;48.778;9.126;2023-04-28T03:19:12;4.32;;;2.72;;
21943;SDS011;11136;48.778;9.126;2023-04-28T03:21:38;3.03;;;2.20;;
21943;SDS011;11136;48.778;9.126;2023-04-28T03:24:04;4.10;;;2.38;;
21943;SDS011;11136;48.778;9.126;2023-04-28T03:26:29;5.38;;;2.35;;
21943;SDS011;11136;48.778;9.126;2023-04-28T03:28:55;7.10;;;2.80;;
21943;SDS011;11136;48.778;9.126;2023-04-28T03:31:21;2.72;;;2.13;;
21943;SDS011;11136;48.778;9.126;2023-04-28T03:33:46;4.95;;;2.28;;
21943;SDS011;11136;48.778;9.126;2023-04-28T03:36:12;6.47;;;2.40;;
21943;SDS011;11136;48.778;9.126;2023-04-28T03:38:37;2.50;;;1.88;;
21943;SDS011;11136;48.778;9.126;2023-04-28T03:41:03;2.72;;;2.45;;
21943;SDS011;11136;48.778;9.126;2023-04-28T03:43:28;6.57;;;2.50;;
21943;SDS011;11136;48.778;9.126;2023-04-28T03:45:54;6.70;;;2.47;;
21943;SDS011;11136;48.778;9.126;2023-04-28T03:48:20;4.15;;;2.25;;
21943;SDS011;11136;48.778;9.126;2023-04-28T03:50:45;5.55;;;2.00;;
21943;SDS011;11136;48.778;9.126;2023-04-28T03:53:11;3.22;;;2.83;;
21943;SDS011;11136;48.778;9.126;2023-04-28T03:55:37;5.07;;;2.78;;
21943;SDS011;11136;48.778;9.126;2023-04-28T03:58:02;2.92;;;2.40;;
21943;SDS011;11136;48.778;9.126;2023-04-28T04:00:28;4.82;;;2.25;;
21943;SDS011;11136;48.778;9.126;2023-04-28T04:02:53;3.50;;;2.08;;
21943;SDS011;11136;48.778;9.126;2023-04-28T04:05:19;4.07;;;2.50;;
21943;SDS011;11136;48.778;9.126;2023-04-28T04:07:45;3.42;;;2.28;;
21943;SDS011;11136;48.778;9.126;2023-04-28T04:10:10;4.25;;;2.40;;
21943;SDS011;11136;48.778;9.126;2023-04-28T04:12:36;4.07;;;2.13;;
21943;SDS011;11136;48.778;9.126;2023-04-28T04:15:01;2.60;;;2.22;;
21943;SDS011;11136;48.778;9.126;2023-04-28T04:17:27;5.07;;;2.10;;
21943;SDS011;11136;48.778;9.126;2023-04-28T04:19:53;3.63;;;2.50;;
21943;SDS011;11136;48.778;9.126;2023-04-28T04:22:18;6.38;;;2.00;;
21943;SDS011;11136;48.778;9.126;2023-04-28T04:24:44;5.43;;;2.10;;
21943;SDS011;11136;48.778;9.126;2023-04-28T04:27:10;7.45;;;2.38;;
21943;SDS011;11136;48.778;9.126;2023-04-28T04:29:35;2.55;;;2.15;;
21943;SDS011;11136;48.778;9.126;2023-04-28T04:32:01;3.40;;;2.25;;
21943;SDS011;11136;48.778;9.126;2023-04-28T04:34:27;4.75;;;2.30;;
21943;SDS011;11136;48.778;9.126;2023-04-28T04:36:52;2.63;;;1.98;;
21943;SDS011;11136;48.778;9.126;2023-04-28T04:39:18;3.08;;;2.10;;
21943;SDS011;11136;48.778;9.126;2023-04-28T04:41:43;4.25;;;2.50;;
21943;SDS011;11136;48.778;9.126;2023-04-28T04:44:09;3.65;;;2.42;;
21943;SDS011;11136;48.778;9.126;2023-04-28T04:46:35;3.05;;;2.13;;
21943;SDS011;11136;48.778;9.126;2023-04-28T04:49:01;4.72;;;2.47;;
21943;SDS011;11136;48.778;9.126;2023-04-28T04:51:26;3.78;;;2.20;;
21943;SDS011;11136;48.778;9.126;2023-04-28T04:53:52;4.88;;;2.72;;
21943;SDS011;11136;48.778;9.126;2023-04-28T04:56:19;3.80;;;2.45;;
21943;SDS011;11136;48.778;9.126;2023-04-28T04:58:44;5.32;;;2.28;;
21943;SDS011;11136;48.778;9.126;2023-04-28T05:01:10;3.53;;;2.25;;
21943;SDS011;11136;48.778;9.126;2023-04-28T05:03:36;3.47;;;2.30;;
21943;SDS011;11136;48.778;9.126;2023-04-28T05:06:02;3.15;;;2.30;;
21943;SDS011;11136;48.778;9.126;2023-04-28T05:08:28;2.60;;;2.13;;
21943;SDS011;11136;48.778;9.126;2023-04-28T05:10:53;7.20;;;2.38;;
21943;SDS011;11136;48.778;9.126;2023-04-28T05:13:19;4.35;;;2.47;;
21943;SDS011;11136;48.778;9.126;2023-04-28T05:15:45;3.50;;;2.38;;
21943;SDS011;11136;48.778;9.126;2023-04-28T05:18:10;4.88;;;2.63;;
21943;SDS011;11136;48.778;9.126;2023-04-28T05:20:37;4.60;;;2.40;;
21943;SDS011;11136;48.778;9.126;2023-04-28T05:23:03;3.00;;;2.70;;
21943;SDS011;11136;48.778;9.126;2023-04-28T05:25:29;4.22;;;2.33;;
21943;SDS011;11136;48.778;9.126;2023-04-28T05:27:55;4.38;;;2.72;;
21943;SDS011;11136;48.778;9.126;2023-04-28T05:30:21;3.90;;;2.58;;
21943;SDS011;11136;48.778;9.126;2023-04-28T05:32:46;3.35;;;2.50;;
21943;SDS011;11136;48.778;9.126;2023-04-28T05:35:12;6.40;;;2.72;;
21943;SDS011;11136;48.778;9.126;2023-04-28T05:37:39;4.50;;;3.05;;
21943;SDS011;11136;48.778;9.126;2023-04-28T05:40:07;4.40;;;2.22;;
21943;SDS011;11136;48.778;9.126;2023-04-28T05:42:33;4.32;;;2.75;;
21943;SDS011;11136;48.778;9.126;2023-04-28T05:44:59;3.53;;;2.40;;
21943;SDS011;11136;48.778;9.126;2023-04-28T05:47:25;4.65;;;2.70;;
21943;SDS011;11136;48.778;9.126;2023-04-28T05:49:50;3.17;;;2.63;;
21943;SDS011;11136;48.778;9.126;2023-04-28T05:52:16;3.60;;;3.10;;
21943;SDS011;11136;48.778;9.126;2023-04-28T05:54:41;5.45;;;2.75;;
21943;SDS011;11136;48.778;9.126;2023-04-28T05:57:07;7.22;;;2.50;;
21943;SDS011;11136;48.778;9.126;2023-04-28T05:59:33;4.07;;;3.17;;
21943;SDS011;11136;48.778;9.126;2023-04-28T06:01:58;5.78;;;3.05;;
21943;SDS011;11136;48.778;9.126;2023-04-28T06:04:24;6.47;;;2.95;;
21943;SDS011;11136;48.778;9.126;2023-04-28T06:06:50;4.63;;;2.50;;
21943;SDS011;11136;48.778;9.126;2023-04-28T06:09:16;4.55;;;3.13;;
21943;SDS011;11136;48.778;9.126;2023-04-28T06:11:41;3.15;;;2.65;;
21943;SDS011;11136;48.778;9.126;2023-04-28T06:14:07;4.38;;;2.88;;
21943;SDS011;11136;48.778;9.126;2023-04-28T06:16:32;7.05;;;3.30;;
21943;SDS011;11136;48.778;9.126;2023-04-28T06:18:58;5.75;;;3.10;;
21943;SDS011;11136;48.778;9.126;2023-04-28T06:21:24;4.45;;;2.53;;
21943;SDS011;11136;48.778;9.126;2023-04-28T06:23:51;5.18;;;3.17;;
21943;SDS011;11136;48.778;9.126;2023-04-28T06:26:16;5.03;;;2.95;;
21943;SDS011;11136;48.778;9.126;2023-04-28T06:28:42;3.80;;;3.17;;
21943;SDS011;11136;48.778;9.126;2023-04-28T06:31:08;4.43;;;2.70;;
21943;SDS011;11136;48.778;9.126;2023-04-28T06:33:33;7.78;;;3.10;;
21943;SDS011;11136;48.778;9.126;2023-04-28T06:35:59;7.93;;;4.00;;
21943;SDS011;11136;48.778;9.126;2023-04-28T06:38:24;8.18;;;2.83;;
21943;SDS011;11136;48.778;9.126;2023-04-28T06:40:50;5.28;;;2.72;;
21943;SDS011;11136;48.778;9.126;2023-04-28T06:43:16;4.30;;;3.28;;
21943;SDS011;11136;48.778;9.126;2023-04-28T06:45:42;7.03;;;3.40;;
21943;SDS011;11136;48.778;9.126;2023-04-28T06:48:08;6.50;;;2.95;;
21943;SDS011;11136;48.778;9.126;2023-04-28T06:50:34;5.32;;;3.20;;
21943;SDS011;11136;48.778;9.126;2023-04-28T06:53:00;5.25;;;2.92;;
21943;SDS011;11136;48.778;9.126;2023-04-28T06:55:26;7.07;;;2.72;;
21943;SDS011;11136;48.778;9.126;2023-04-28T06:57:52;3.15;;;2.40;;
21943;SDS011;11136;48.778;9.126;2023-04-28T07:00:18;4.25;;;2.63;;
21943;SDS011;11136;48.778;9.126;2023-04-28T07:02:43;5.85;;;2.80;;
21943;SDS011;11136;48.778;9.126;2023-04-28T07:05:09;3.58;;;2.83;;
21943;SDS011;11136;48.778;9.126;2023-04-28T07:07:35;3.03;;;2.28;;
21943;SDS011;11136;48.778;9.126;2023-04-28T07:10:03;3.45;;;2.53;;
21943;SDS011;11136;48.778;9.126;2023-04-28T07:12:29;4.63;;;2.67;;
21943;SDS011;11136;48.778;9.126;2023-04-28T07:14:55;3.65;;;2.10;;
21943;SDS011;11136;48.778;9.126;2023-04-28T07:17:20;4.57;;;2.35;;
21943;SDS011;11136;48.778;9.126;2023-04-28T07:19:46;4.03;;;2.65;;
21943;SDS011;11136;48.778;9.126;2023-04-28T07:22:13;3.03;;;2.33;;
21943;SDS011;11136;48.778;9.126;2023-04-28T07:24:39;3.08;;;2.13;;
21943;SDS011;11136;48.778;9.126;2023-04-28T07:27:05;2.90;;;2.30;;
21943;SDS011;11136;48.778;9.126;2023-04-28T07:29:30;4.13;;;2.30;;
21943;SDS011;11136;48.778;9.126;2023-04-28T07:32:01;2.88;;;2.10;;
21943;SDS011;11136;48.778;9.126;2023-04-28T07:34:29;3.13;;;2.15;;
21943;SDS011;11136;48.778;9.126;2023-04-28T07:36:55;2.72;;;2.08;;
21943;SDS011;11136;48.778;9.126;2023-04-28T07:39:21;3.53;;;2.10;;
21943;SDS011;11136;48.778;9.126;2023-04-28T07:41:46;3.05;;;2.00;;
21943;SDS011;11136;48.778;9.126;2023-04-28T07:44:12;4.22;;;2.60;;
21943;SDS011;11136;48.778;9.126;2023-04-28T07:46:37;3.72;;;2.15;;
21943;SDS011;11136;48.778;9.126;2023-04-28T07:49:03;2.92;;;1.95;;
21943;SDS011;11136;48.778;9.126;2023-04-28T07:51:29;2.90;;;2.47;;
21943;SDS011;11136;48.778;9.126;2023-04-28T07:53:55;3.00;;;2.30;;
21943;SDS011;11136;48.778;9.126;2023-04-28T07:56:21;3.65;;;2.40;;
21943;SDS011;11136;48.778;9.126;2023-04-28T07:58:47;3.25;;;2.33;;
21943;SDS011;11136;48.778;9.126;2023-04-28T08:01:13;3.63;;;2.85;;
21943;SDS011;11136;48.778;9.126;2023-04-28T08:03:38;5.93;;;2.80;;
21943;SDS011;11136;48.778;9.126;2023-04-28T08:06:04;4.22;;;2.50;;
21943;SDS011;11136;48.778;9.126;2023-04-28T08:08:31;6.03;;;3.03;;
21943;SDS011;11136;48.778;9.126;2023-04-28T08:10:56;6.00;;;2.90;;
21943;SDS011;11136;48.778;9.126;2023-04-28T08:13:23;4.95;;;2.47;;
21943;SDS011;11136;48.778;9.126;2023-04-28T08:15:48;3.47;;;2.58;;
21943;SDS011;11136;48.778;9.126;2023-04-28T08:18:14;2.92;;;2.40;;
21943;SDS011;11136;48.778;9.126;2023-04-28T08:20:40;4.03;;;2.55;;
21943;SDS011;11136;48.778;9.126;2023-04-28T08:23:06;5.45;;;2.67;;
21943;SDS011;11136;48.778;9.126;2023-04-28T08:25:33;4.13;;;3.00;;
21943;SDS011;11136;48.778;9.126;2023-04-28T08:27:58;6.40;;;3.00;;
21943;SDS011;11136;48.778;9.126;2023-04-28T08:30:24;4.50;;;3.08;;
21943;SDS011;11136;48.778;9.126;2023-04-28T08:32:50;3.90;;;3.13;;
21943;SDS011;11136;48.778;9.126;2023-04-28T08:35:15;7.45;;;3.72;;
21943;SDS011;11136;48.778;9.126;2023-04-28T08:37:41;4.97;;;3.58;;
21943;SDS011;11136;48.778;9.126;2023-04-28T08:40:07;5.90;;;3.83;;
21943;SDS011;11136;48.778;9.126;2023-04-28T08:42:34;6.03;;;3.28;;
21943;SDS011;11136;48.778;9.126;2023-04-28T08:45:00;7.00;;;4.05;;
21943;SDS011;11136;48.778;9.126;2023-04-28T08:50:05;6.50;;;3.95;;
21943;SDS011;11136;48.778;9.126;2023-04-28T08:52:32;7.00;;;4.28;;
21943;SDS011;11136;48.778;9.126;2023-04-28T08:55:00;7.13;;;4.15;;
21943;SDS011;11136;48.778;9.126;2023-04-28T08:57:43;5.43;;;3.97;;
21943;SDS011;11136;48.778;9.126;2023-04-28T09:00:12;4.88;;;3.72;;
21943;SDS011;11136;48.778;9.126;2023-04-28T09:02:38;5.85;;;3.50;;
21943;SDS011;11136;48.778;9.126;2023-04-28T09:05:06;4.55;;;3.60;;
21943;SDS011;11136;48.778;9.126;2023-04-28T09:07:33;7.93;;;3.13;;
21943;SDS011;11136;48.778;9.126;2023-04-28T09:12:44;4.75;;;3.42;;
21943;SDS011;11136;48.778;9.126;2023-04-28T09:15:09;5.43;;;3.30;;
21943;SDS011;11136;48.778;9.126;2023-04-28T09:17:48;4.07;;;3.30;;
21943;SDS011;11136;48.778;9.126;2023-04-28T09:20:24;4.30;;;3.20;;
21943;SDS011;11136;48.778;9.126;2023-04-28T09:22:52;4.75;;;3.40;;
21943;SDS011;11136;48.778;9.126;2023-04-28T09:25:19;3.08;;;2.78;;
21943;SDS011;11136;48.778;9.126;2023-04-28T09:27:48;5.75;;;3.35;;
21943;SDS011;11136;48.778;9.126;2023-04-28T09:30:14;4.22;;;3.28;;
21943;SDS011;11136;48.778;9.126;2023-04-28T09:32:40;4.88;;;3.30;;
21943;SDS011;11136;48.778;9.126;2023-04-28T09:35:06;4.35;;;3.17;;
21943;SDS011;11136;48.778;9.126;2023-04-28T09:37:33;5.60;;;3.22;;
21943;SDS011;11136;48.778;9.126;2023-04-28T09:40:06;3.78;;;3.00;;
21943;SDS011;11136;48.778;9.126;2023-04-28T09:42:40;3.60;;;2.90;;
21943;SDS011;11136;48.778;9.126;2023-04-28T09:47:35;4.45;;;2.75;;
21943;SDS011;11136;48.778;9.126;2023-04-28T09:50:02;3.30;;;2.80;;
21943;SDS011;11136;48.778;9.126;2023-04-28T09:52:32;5.03;;;2.50;;
21943;SDS011;11136;48.778;9.126;2023-04-28T09:54:58;5.30;;;2.95;;
21943;SDS011;11136;48.778;9.126;2023-04-28T09:57:28;3.33;;;2.60;;
21943;SDS011;11136;48.778;9.126;2023-04-28T09:59:56;3.65;;;2.10;;
21943;SDS011;11136;48.778;9.126;2023-04-28T10:02:22;3.65;;;2.15;;
21943;SDS011;11136;48.778;9.126;2023-04-28T10:04:49;2.63;;;2.08;;
21943;SDS011;11136;48.778;9.126;2023-04-28T10:07:18;3.22;;;1.85;;
21943;SDS011;11136;48.778;9.126;2023-04-28T10:09:45;5.35;;;1.40;;
21943;SDS011;11136;48.778;9.126;2023-04-28T10:12:14;1.55;;;1.45;;
21943;SDS011;11136;48.778;9.126;2023-04-28T10:14:43;0.98;;;0.90;;
21943;SDS011;11136;48.778;9.126;2023-04-28T10:17:10;1.33;;;1.20;;
21943;SDS011;11136;48.778;9.126;2023-04-28T10:19:38;1.25;;;1.15;;
21943;SDS011;11136;48.778;9.126;2023-04-28T10:27:41;1.30;;;1.20;;
21943;SDS011;11136;48.778;9.126;2023-04-28T10:30:10;1.85;;;1.17;;
21943;SDS011;11136;48.778;9.126;2023-04-28T10:32:38;1.80;;;1.30;;
21943;SDS011;11136;48.778;9.126;2023-04-28T10:40:34;1.42;;;0.75;;
21943;SDS011;11136;48.778;9.126;2023-04-28T10:43:13;1.30;;;1.20;;
21943;SDS011;11136;48.778;9.126;2023-04-28T10:45:57;1.10;;;1.00;;
21943;SDS011;11136;48.778;9.126;2023-04-28T10:56:16;2.15;;;1.00;;
21943;SDS011;11136;48.778;9.126;2023-04-28T10:58:50;1.67;;;0.68;;
21943;SDS011;11136;48.778;9.126;2023-04-28T11:06:37;1.08;;;0.70;;
21943;SDS011;11136;48.778;9.126;2023-04-28T11:21:53;0.70;;;0.50;;
21943;SDS011;11136;48.778;9.126;2023-04-28T11:24:21;0.80;;;0.55;;
21943;SDS011;11136;48.778;9.126;2023-04-28T11:26:50;0.82;;;0.47;;
21943;SDS011;11136;48.778;9.126;2023-04-28T11:29:29;1.80;;;0.80;;
21943;SDS011;11136;48.778;9.126;2023-04-28T11:31:57;0.77;;;0.65;;
21943;SDS011;11136;48.778;9.126;2023-04-28T11:34:23;0.60;;;0.60;;
21943;SDS011;11136;48.778;9.126;2023-04-28T11:36:49;0.50;;;0.50;;
21943;SDS011;11136;48.778;9.126;2023-04-28T11:39:15;1.02;;;0.60;;
21943;SDS011;11136;48.778;9.126;2023-04-28T11:41:41;1.50;;;0.70;;
21943;SDS011;11136;48.778;9.126;2023-04-28T11:44:09;1.20;;;0.57;;
21943;SDS011;11136;48.778;9.126;2023-04-28T11:46:35;0.50;;;0.50;;
21943;SDS011;11136;48.778;9.126;2023-04-28T11:49:19;0.45;;;0.45;;
21943;SDS011;11136;48.778;9.126;2023-04-28T11:51:45;2.25;;;0.50;;
21943;SDS011;11136;48.778;9.126;2023-04-28T11:54:13;1.58;;;0.68;;
21943;SDS011;11136;48.778;9.126;2023-04-28T11:56:43;0.88;;;0.65;;
21943;SDS011;11136;48.778;9.126;2023-04-28T11:59:10;2.78;;;0.73;;
21943;SDS011;11136;48.778;9.126;2023-04-28T12:01:50;0.50;;;0.50;;
21943;SDS011;11136;48.778;9.126;2023-04-28T12:10:10;1.25;;;0.65;;
21943;SDS011;11136;48.778;9.126;2023-04-28T12:12:37;1.98;;;0.50;;
21943;SDS011;11136;48.778;9.126;2023-04-28T12:15:03;2.65;;;1.13;;
21943;SDS011;11136;48.778;9.126;2023-04-28T12:17:32;2.00;;;0.43;;
21943;SDS011;11136;48.778;9.126;2023-04-28T12:20:01;4.20;;;0.63;;
21943;SDS011;11136;48.778;9.126;2023-04-28T12:22:28;0.77;;;0.55;;
21943;SDS011;11136;48.778;9.126;2023-04-28T12:27:30;2.58;;;0.75;;
21943;SDS011;11136;48.778;9.126;2023-04-28T12:29:56;1.13;;;0.77;;
21943;SDS011;11136;48.778;9.126;2023-04-28T12:32:40;1.08;;;0.52;;
21943;SDS011;11136;48.778;9.126;2023-04-28T12:35:09;1.17;;;0.45;;
21943;SDS011;11136;48.778;9.126;2023-04-28T12:37:35;1.77;;;0.70;;
21943;SDS011;11136;48.778;9.126;2023-04-28T12:40:03;2.60;;;0.70;;
21943;SDS011;11136;48.778;9.126;2023-04-28T12:42:30;0.50;;;0.50;;
21943;SDS011;11136;48.778;9.126;2023-04-28T12:44:56;0.60;;;0.57;;
21943;SDS011;11136;48.778;9.126;2023-04-28T12:47:22;1.05;;;0.60;;
21943;SDS011;11136;48.778;9.126;2023-04-28T12:49:48;2.22;;;0.40;;
21943;SDS011;11136;48.778;9.126;2023-04-28T12:52:17;2.10;;;0.50;;
21943;SDS011;11136;48.778;9.126;2023-04-28T12:54:43;3.03;;;0.63;;
21943;SDS011;11136;48.778;9.126;2023-04-28T12:57:20;0.88;;;0.50;;
21943;SDS011;11136;48.778;9.126;2023-04-28T12:59:46;0.60;;;0.60;;
21943;SDS011;11136;48.778;9.126;2023-04-28T13:02:13;1.85;;;0.70;;
21943;SDS011;11136;48.778;9.126;2023-04-28T13:04:42;3.15;;;2.03;;
21943;SDS011;11136;48.778;9.126;2023-04-28T13:07:10;1.38;;;0.93;;
21943;SDS011;11136;48.778;9.126;2023-04-28T13:09:36;1.13;;;0.90;;
21943;SDS011;11136;48.778;9.126;2023-04-28T13:12:02;1.30;;;1.20;;
21943;SDS011;11136;48.778;9.126;2023-04-28T13:14:28;2.15;;;1.30;;
21943;SDS011;11136;48.778;9.126;2023-04-28T13:16:55;1.80;;;1.05;;
21943;SDS011;11136;48.778;9.126;2023-04-28T13:19:21;1.48;;;1.10;;
21943;SDS011;11136;48.778;9.126;2023-04-28T13:21:47;2.55;;;1.15;;
21943;SDS011;11136;48.778;9.126;2023-04-28T13:24:13;2.42;;;1.00;;
21943;SDS011;11136;48.778;9.126;2023-04-28T13:26:38;1.75;;;1.00;;
21943;SDS011;11136;48.778;9.126;2023-04-28T13:29:04;2.53;;;1.10;;
21943;SDS011;11136;48.778;9.126;2023-04-28T13:31:35;0.98;;;0.80;;
21943;SDS011;11136;48.778;9.126;2023-04-28T13:34:06;2.35;;;1.10;;
21943;SDS011;11136;48.778;9.126;2023-04-28T13:36:33;2.83;;;1.00;;
21943;SDS011;11136;48.778;9.126;2023-04-28T13:39:02;3.17;;;1.17;;
21943;SDS011;11136;48.778;9.126;2023-04-28T13:41:31;1.35;;;1.10;;
21943;SDS011;11136;48.778;9.126;2023-04-28T13:44:00;2.22;;;1.42;;
21943;SDS011;11136;48.778;9.126;2023-04-28T13:46:27;1.65;;;1.17;;
21943;SDS011;11136;48.778;9.126;2023-04-28T13:48:55;4.57;;;1.48;;
21943;SDS011;11136;48.778;9.126;2023-04-28T13:51:23;4.10;;;1.30;;
21943;SDS011;11136;48.778;9.126;2023-04-28T13:54:00;2.42;;;1.13;;
21943;SDS011;11136;48.778;9.126;2023-04-28T13:56:31;2.15;;;1.35;;
21943;SDS011;11136;48.778;9.126;2023-04-28T13:58:56;2.42;;;1.80;;
21943;SDS011;11136;48.778;9.126;2023-04-28T14:01:23;1.50;;;1.27;;
21943;SDS011;11136;48.778;9.126;2023-04-28T14:03:49;1.83;;;1.30;;
21943;SDS011;11136;48.778;9.126;2023-04-28T14:06:15;4.38;;;1.48;;
21943;SDS011;11136;48.778;9.126;2023-04-28T14:08:41;3.42;;;1.70;;
21943;SDS011;11136;48.778;9.126;2023-04-28T14:11:07;2.00;;;1.70;;
21943;SDS011;11136;48.778;9.126;2023-04-28T14:13:34;4.45;;;1.48;;
21943;SDS011;11136;48.778;9.126;2023-04-28T14:16:00;4.32;;;3.22;;
21943;SDS011;11136;48.778;9.126;2023-04-28T14:18:29;5.32;;;2.33;;
21943;SDS011;11136;48.778;9.126;2023-04-28T14:20:57;1.92;;;1.77;;
21943;SDS011;11136;48.778;9.126;2023-04-28T14:23:22;2.53;;;1.58;;
21943;SDS011;11136;48.778;9.126;2023-04-28T14:25:48;3.70;;;2.13;;
21943;SDS011;11136;48.778;9.126;2023-04-28T14:28:20;2.13;;;1.50;;
21943;SDS011;11136;48.778;9.126;2023-04-28T14:30:46;3.80;;;1.45;;
21943;SDS011;11136;48.778;9.126;2023-04-28T14:33:11;3.25;;;1.10;;
21943;SDS011;11136;48.778;9.126;2023-04-28T14:35:37;2.47;;;0.50;;
21943;SDS011;11136;48.778;9.126;2023-04-28T14:38:03;1.10;;;0.73;;
21943;SDS011;11136;48.778;9.126;2023-04-28T14:40:29;0.85;;;0.47;;
21943;SDS011;11136;48.778;9.126;2023-04-28T14:42:56;0.30;;;0.30;;
21943;SDS011;11136;48.778;9.126;2023-04-28T14:45:25;0.80;;;0.35;;
21943;SDS011;11136;48.778;9.126;2023-04-28T14:47:51;3.20;;;0.30;;
21943;SDS011;11136;48.778;9.126;2023-04-28T14:50:17;1.83;;;0.32;;
21943;SDS011;11136;48.778;9.126;2023-04-28T14:52:43;0.52;;;0.35;;
21943;SDS011;11136;48.778;9.126;2023-04-28T14:55:09;0.28;;;0.28;;
21943;SDS011;11136;48.778;9.126;2023-04-28T14:57:34;0.40;;;0.40;;
21943;SDS011;11136;48.778;9.126;2023-04-28T15:00:04;2.10;;;0.30;;
21943;SDS011;11136;48.778;9.126;2023-04-28T15:02:33;1.35;;;0.60;;
21943;SDS011;11136;48.778;9.126;2023-04-28T15:05:00;0.95;;;0.50;;
21943;SDS011;11136;48.778;9.126;2023-04-28T15:07:26;1.40;;;0.65;;
21943;SDS011;11136;48.778;9.126;2023-04-28T15:09:55;0.30;;;0.30;;
21943;SDS011;11136;48.778;9.126;2023-04-28T15:12:24;0.40;;;0.40;;
21943;SDS011;11136;48.778;9.126;2023-04-28T15:14:50;0.35;;;0.35;;
21943;SDS011;11136;48.778;9.126;2023-04-28T15:17:18;1.95;;;0.40;;
21943;SDS011;11136;48.778;9.126;2023-04-28T15:19:44;0.40;;;0.30;;
21943;SDS011;11136;48.778;9.126;2023-04-28T15:22:10;0.98;;;0.57;;
21943;SDS011;11136;48.778;9.126;2023-04-28T15:24:36;0.75;;;0.60;;
21943;SDS011;11136;48.778;9.126;2023-04-28T15:27:02;1.63;;;0.52;;
21943;SDS011;11136;48.778;9.126;2023-04-28T15:29:28;0.93;;;0.60;;
21943;SDS011;11136;48.778;9.126;2023-04-28T15:31:54;2.35;;;0.52;;
21943;SDS011;11136;48.778;9.126;2023-04-28T15:34:20;1.02;;;0.50;;
21943;SDS011;11136;48.778;9.126;2023-04-28T15:36:47;3.17;;;0.50;;
21943;SDS011;11136;48.778;9.126;2023-04-28T15:39:13;0.55;;;0.47;;
21943;SDS011;11136;48.778;9.126;2023-04-28T15:41:43;0.95;;;0.47;;